sensor_id;sensor_type;location;lat;lon;timestamp;P1;durP1;ratioP1;P2;durP2;ratioP2
24739;SDS011;45234;48.148;17.128;2023-03-01T00:01:15;32.00;;;15.80;;
24739;SDS011;45234;48.148;17.128;2023-03-01T00:03:43;23.48;;;13.90;;
24739;SDS011;45234;48.148;17.128;2023-03-01T00:06:10;27.63;;;14.90;;
24739;SDS011;45234;48.148;17.128;2023-03-01T00:08:38;28.15;;;14.27;;
24739;SDS011;45234;48.148;17.128;2023-03-01T00:13:46;26.75;;;14.68;;
24739;SDS011;45234;48.148;17.128;2023-03-01T00:16:15;22.48;;;12.77;;
24739;SDS011;45234;48.148;17.128;2023-03-01T00:18:45;23.17;;;14.18;;
24739;SDS011;45234;48.148;17.128;2023-03-01T00:21:12;25.75;;;13.85;;
24739;SDS011;45234;48.148;17.128;2023-03-01T00:23:39;22.10;;;12.93;;
24739;SDS011;45234;48.148;17.128;2023-03-01T00:26:09;23.48;;;14.00;;
24739;SDS011;45234;48.148;17.128;2023-03-01T00:28:38;24.88;;;13.38;;
24739;SDS011;45234;48.148;17.128;2023-03-01T00:31:07;25.27;;;14.00;;
24739;SDS011;45234;48.148;17.128;2023-03-01T00:33:36;23.98;;;13.52;;
24739;SDS011;45234;48.148;17.128;2023-03-01T00:36:03;24.38;;;13.32;;
24739;SDS011;45234;48.148;17.128;2023-03-01T00:38:33;24.48;;;13.57;;
24739;SDS011;45234;48.148;17.128;2023-03-01T00:41:05;22.13;;;13.38;;
24739;SDS011;45234;48.148;17.128;2023-03-01T00:43:33;25.55;;;13.43;;
24739;SDS011;45234;48.148;17.128;2023-03-01T00:46:03;24.88;;;14.85;;
24739;SDS011;45234;48.148;17.128;2023-03-01T00:48:33;29.17;;;15.75;;
24739;SDS011;45234;48.148;17.128;2023-03-01T00:51:05;25.50;;;14.48;;
24739;SDS011;45234;48.148;17.128;2023-03-01T00:53:34;27.73;;;15.88;;
24739;SDS011;45234;48.148;17.128;2023-03-01T00:56:02;26.80;;;16.02;;
24739;SDS011;45234;48.148;17.128;2023-03-01T00:58:30;27.95;;;15.57;;
24739;SDS011;45234;48.148;17.128;2023-03-01T01:00:57;27.83;;;15.95;;
24739;SDS011;45234;48.148;17.128;2023-03-01T01:03:25;31.30;;;16.30;;
24739;SDS011;45234;48.148;17.128;2023-03-01T01:05:52;28.08;;;15.45;;
24739;SDS011;45234;48.148;17.128;2023-03-01T01:08:20;26.70;;;14.88;;
24739;SDS011;45234;48.148;17.128;2023-03-01T01:10:47;27.52;;;16.52;;
24739;SDS011;45234;48.148;17.128;2023-03-01T01:13:15;27.50;;;16.48;;
24739;SDS011;45234;48.148;17.128;2023-03-01T01:15:43;31.50;;;16.08;;
24739;SDS011;45234;48.148;17.128;2023-03-01T01:18:10;27.27;;;15.32;;
24739;SDS011;45234;48.148;17.128;2023-03-01T01:20:37;23.23;;;14.68;;
24739;SDS011;45234;48.148;17.128;2023-03-01T01:23:04;28.35;;;15.38;;
24739;SDS011;45234;48.148;17.128;2023-03-01T01:25:33;25.00;;;15.32;;
24739;SDS011;45234;48.148;17.128;2023-03-01T01:28:02;29.80;;;16.80;;
24739;SDS011;45234;48.148;17.128;2023-03-01T01:30:29;33.88;;;18.63;;
24739;SDS011;45234;48.148;17.128;2023-03-01T01:32:55;34.10;;;19.30;;
24739;SDS011;45234;48.148;17.128;2023-03-01T01:35:22;34.20;;;19.65;;
24739;SDS011;45234;48.148;17.128;2023-03-01T01:37:49;37.05;;;20.33;;
24739;SDS011;45234;48.148;17.128;2023-03-01T01:40:16;42.28;;;22.25;;
24739;SDS011;45234;48.148;17.128;2023-03-01T01:42:43;37.92;;;21.88;;
24739;SDS011;45234;48.148;17.128;2023-03-01T01:47:59;34.72;;;20.55;;
24739;SDS011;45234;48.148;17.128;2023-03-01T01:50:32;39.95;;;21.88;;
24739;SDS011;45234;48.148;17.128;2023-03-01T01:53:05;39.67;;;21.42;;
24739;SDS011;45234;48.148;17.128;2023-03-01T01:55:36;40.45;;;21.25;;
24739;SDS011;45234;48.148;17.128;2023-03-01T01:58:07;35.33;;;20.58;;
24739;SDS011;45234;48.148;17.128;2023-03-01T02:00:36;36.97;;;20.45;;
24739;SDS011;45234;48.148;17.128;2023-03-01T02:03:07;37.97;;;19.92;;
24739;SDS011;45234;48.148;17.128;2023-03-01T02:08:11;34.97;;;19.27;;
24739;SDS011;45234;48.148;17.128;2023-03-01T02:10:39;36.58;;;19.40;;
24739;SDS011;45234;48.148;17.128;2023-03-01T02:13:08;36.78;;;20.27;;
24739;SDS011;45234;48.148;17.128;2023-03-01T02:15:36;34.97;;;20.73;;
24739;SDS011;45234;48.148;17.128;2023-03-01T02:18:05;32.40;;;19.92;;
24739;SDS011;45234;48.148;17.128;2023-03-01T02:23:34;31.23;;;18.35;;
24739;SDS011;45234;48.148;17.128;2023-03-01T02:26:04;33.17;;;20.45;;
24739;SDS011;45234;48.148;17.128;2023-03-01T02:28:53;28.02;;;18.48;;
24739;SDS011;45234;48.148;17.128;2023-03-01T02:31:20;34.10;;;19.08;;
24739;SDS011;45234;48.148;17.128;2023-03-01T02:34:08;31.05;;;17.15;;
24739;SDS011;45234;48.148;17.128;2023-03-01T02:36:38;30.65;;;18.23;;
24739;SDS011;45234;48.148;17.128;2023-03-01T02:39:27;29.43;;;17.43;;
24739;SDS011;45234;48.148;17.128;2023-03-01T02:41:58;34.08;;;18.90;;
24739;SDS011;45234;48.148;17.128;2023-03-01T02:44:26;29.33;;;18.73;;
24739;SDS011;45234;48.148;17.128;2023-03-01T02:46:54;30.33;;;18.75;;
24739;SDS011;45234;48.148;17.128;2023-03-01T02:49:28;30.55;;;18.05;;
24739;SDS011;45234;48.148;17.128;2023-03-01T02:57:34;32.10;;;19.25;;
24739;SDS011;45234;48.148;17.128;2023-03-01T03:00:08;27.55;;;17.38;;
24739;SDS011;45234;48.148;17.128;2023-03-01T03:02:46;31.13;;;16.60;;
24739;SDS011;45234;48.148;17.128;2023-03-01T03:05:22;33.30;;;18.48;;
24739;SDS011;45234;48.148;17.128;2023-03-01T03:07:54;33.35;;;18.83;;
24739;SDS011;45234;48.148;17.128;2023-03-01T03:10:26;31.88;;;18.15;;
24739;SDS011;45234;48.148;17.128;2023-03-01T03:13:05;34.47;;;19.65;;
24739;SDS011;45234;48.148;17.128;2023-03-01T03:15:34;32.20;;;18.93;;
24739;SDS011;45234;48.148;17.128;2023-03-01T03:18:05;33.13;;;19.60;;
24739;SDS011;45234;48.148;17.128;2023-03-01T03:20:35;36.35;;;20.73;;
24739;SDS011;45234;48.148;17.128;2023-03-01T03:23:04;29.45;;;18.35;;
24739;SDS011;45234;48.148;17.128;2023-03-01T03:25:31;34.78;;;19.63;;
24739;SDS011;45234;48.148;17.128;2023-03-01T03:28:04;34.22;;;19.70;;
24739;SDS011;45234;48.148;17.128;2023-03-01T03:30:36;31.58;;;18.98;;
24739;SDS011;45234;48.148;17.128;2023-03-01T03:33:05;36.55;;;19.85;;
24739;SDS011;45234;48.148;17.128;2023-03-01T03:36:06;35.33;;;20.52;;
24739;SDS011;45234;48.148;17.128;2023-03-01T03:38:25;35.60;;;19.70;;
24739;SDS011;45234;48.148;17.128;2023-03-01T03:41:00;29.95;;;18.83;;
24739;SDS011;45234;48.148;17.128;2023-03-01T03:43:30;33.78;;;19.45;;
24739;SDS011;45234;48.148;17.128;2023-03-01T03:46:00;34.85;;;18.77;;
24739;SDS011;45234;48.148;17.128;2023-03-01T03:48:35;37.60;;;21.40;;
24739;SDS011;45234;48.148;17.128;2023-03-01T03:51:09;34.28;;;18.58;;
24739;SDS011;45234;48.148;17.128;2023-03-01T03:53:37;31.90;;;18.15;;
24739;SDS011;45234;48.148;17.128;2023-03-01T03:56:04;34.17;;;17.60;;
24739;SDS011;45234;48.148;17.128;2023-03-01T03:58:32;27.83;;;17.60;;
24739;SDS011;45234;48.148;17.128;2023-03-01T04:00:59;33.00;;;19.25;;
24739;SDS011;45234;48.148;17.128;2023-03-01T04:03:27;30.92;;;17.90;;
24739;SDS011;45234;48.148;17.128;2023-03-01T04:05:57;28.27;;;16.90;;
24739;SDS011;45234;48.148;17.128;2023-03-01T04:08:24;29.90;;;17.60;;
24739;SDS011;45234;48.148;17.128;2023-03-01T04:10:55;27.67;;;16.80;;
24739;SDS011;45234;48.148;17.128;2023-03-01T04:13:25;27.10;;;16.50;;
24739;SDS011;45234;48.148;17.128;2023-03-01T04:15:52;26.98;;;16.02;;
24739;SDS011;45234;48.148;17.128;2023-03-01T04:18:22;27.33;;;16.20;;
24739;SDS011;45234;48.148;17.128;2023-03-01T04:20:50;28.92;;;16.20;;
24739;SDS011;45234;48.148;17.128;2023-03-01T04:23:21;26.90;;;15.23;;
24739;SDS011;45234;48.148;17.128;2023-03-01T04:25:49;27.13;;;15.57;;
24739;SDS011;45234;48.148;17.128;2023-03-01T04:30:53;31.02;;;15.68;;
24739;SDS011;45234;48.148;17.128;2023-03-01T04:33:22;26.13;;;15.27;;
24739;SDS011;45234;48.148;17.128;2023-03-01T04:35:50;27.33;;;16.75;;
24739;SDS011;45234;48.148;17.128;2023-03-01T04:38:18;29.40;;;15.95;;
24739;SDS011;45234;48.148;17.128;2023-03-01T04:40:47;30.13;;;16.73;;
24739;SDS011;45234;48.148;17.128;2023-03-01T04:43:14;31.63;;;16.30;;
24739;SDS011;45234;48.148;17.128;2023-03-01T04:45:43;28.30;;;15.95;;
24739;SDS011;45234;48.148;17.128;2023-03-01T04:48:10;26.02;;;15.48;;
24739;SDS011;45234;48.148;17.128;2023-03-01T04:50:38;26.42;;;15.23;;
24739;SDS011;45234;48.148;17.128;2023-03-01T04:53:05;30.33;;;16.00;;
24739;SDS011;45234;48.148;17.128;2023-03-01T04:55:31;25.55;;;15.18;;
24739;SDS011;45234;48.148;17.128;2023-03-01T04:58:00;27.25;;;15.27;;
24739;SDS011;45234;48.148;17.128;2023-03-01T05:00:28;22.95;;;14.65;;
24739;SDS011;45234;48.148;17.128;2023-03-01T05:02:55;26.33;;;15.13;;
24739;SDS011;45234;48.148;17.128;2023-03-01T05:05:27;23.95;;;14.77;;
24739;SDS011;45234;48.148;17.128;2023-03-01T05:07:57;26.95;;;15.52;;
24739;SDS011;45234;48.148;17.128;2023-03-01T05:10:27;22.27;;;13.82;;
24739;SDS011;45234;48.148;17.128;2023-03-01T05:12:55;23.05;;;13.88;;
24739;SDS011;45234;48.148;17.128;2023-03-01T05:15:23;21.05;;;13.63;;
24739;SDS011;45234;48.148;17.128;2023-03-01T05:17:57;26.48;;;13.52;;
24739;SDS011;45234;48.148;17.128;2023-03-01T05:20:28;26.50;;;14.60;;
24739;SDS011;45234;48.148;17.128;2023-03-01T05:22:59;25.08;;;13.80;;
24739;SDS011;45234;48.148;17.128;2023-03-01T05:25:26;19.73;;;13.68;;
24739;SDS011;45234;48.148;17.128;2023-03-01T05:28:02;21.45;;;13.15;;
24739;SDS011;45234;48.148;17.128;2023-03-01T05:30:31;22.92;;;13.98;;
24739;SDS011;45234;48.148;17.128;2023-03-01T05:33:01;24.48;;;14.23;;
24739;SDS011;45234;48.148;17.128;2023-03-01T05:35:28;24.35;;;14.07;;
24739;SDS011;45234;48.148;17.128;2023-03-01T05:37:55;22.58;;;12.73;;
24739;SDS011;45234;48.148;17.128;2023-03-01T05:40:22;21.10;;;12.95;;
24739;SDS011;45234;48.148;17.128;2023-03-01T05:42:52;21.45;;;13.35;;
24739;SDS011;45234;48.148;17.128;2023-03-01T05:45:20;22.10;;;13.60;;
24739;SDS011;45234;48.148;17.128;2023-03-01T05:47:48;20.58;;;13.40;;
24739;SDS011;45234;48.148;17.128;2023-03-01T05:50:20;25.73;;;14.65;;
24739;SDS011;45234;48.148;17.128;2023-03-01T05:52:51;23.38;;;13.57;;
24739;SDS011;45234;48.148;17.128;2023-03-01T05:55:25;21.25;;;12.73;;
24739;SDS011;45234;48.148;17.128;2023-03-01T05:57:54;21.55;;;11.88;;
24739;SDS011;45234;48.148;17.128;2023-03-01T06:00:24;22.08;;;13.85;;
24739;SDS011;45234;48.148;17.128;2023-03-01T06:02:52;20.33;;;13.38;;
24739;SDS011;45234;48.148;17.128;2023-03-01T06:05:20;24.23;;;13.50;;
24739;SDS011;45234;48.148;17.128;2023-03-01T06:07:48;22.48;;;13.52;;
24739;SDS011;45234;48.148;17.128;2023-03-01T06:10:16;23.33;;;13.27;;
24739;SDS011;45234;48.148;17.128;2023-03-01T06:12:45;23.25;;;13.02;;
24739;SDS011;45234;48.148;17.128;2023-03-01T06:15:15;22.73;;;13.07;;
24739;SDS011;45234;48.148;17.128;2023-03-01T06:17:43;26.48;;;13.70;;
24739;SDS011;45234;48.148;17.128;2023-03-01T06:20:13;23.67;;;13.65;;
24739;SDS011;45234;48.148;17.128;2023-03-01T06:22:45;26.23;;;13.95;;
24739;SDS011;45234;48.148;17.128;2023-03-01T06:25:14;27.42;;;13.57;;
24739;SDS011;45234;48.148;17.128;2023-03-01T06:27:43;24.02;;;13.68;;
24739;SDS011;45234;48.148;17.128;2023-03-01T06:30:12;24.35;;;13.80;;
24739;SDS011;45234;48.148;17.128;2023-03-01T06:32:40;28.10;;;15.90;;
24739;SDS011;45234;48.148;17.128;2023-03-01T06:35:09;25.70;;;15.50;;
24739;SDS011;45234;48.148;17.128;2023-03-01T06:37:37;25.63;;;14.98;;
24739;SDS011;45234;48.148;17.128;2023-03-01T06:40:05;29.15;;;15.80;;
24739;SDS011;45234;48.148;17.128;2023-03-01T06:42:34;26.17;;;15.52;;
24739;SDS011;45234;48.148;17.128;2023-03-01T06:45:03;29.27;;;16.70;;
24739;SDS011;45234;48.148;17.128;2023-03-01T06:47:32;27.75;;;15.77;;
24739;SDS011;45234;48.148;17.128;2023-03-01T06:49:59;28.63;;;16.00;;
24739;SDS011;45234;48.148;17.128;2023-03-01T06:52:28;25.00;;;14.82;;
24739;SDS011;45234;48.148;17.128;2023-03-01T06:54:55;27.38;;;16.80;;
24739;SDS011;45234;48.148;17.128;2023-03-01T06:57:22;28.40;;;16.27;;
24739;SDS011;45234;48.148;17.128;2023-03-01T06:59:48;28.17;;;16.38;;
24739;SDS011;45234;48.148;17.128;2023-03-01T07:02:15;29.10;;;15.48;;
24739;SDS011;45234;48.148;17.128;2023-03-01T07:04:42;26.85;;;15.65;;
24739;SDS011;45234;48.148;17.128;2023-03-01T07:07:09;25.95;;;16.48;;
24739;SDS011;45234;48.148;17.128;2023-03-01T07:09:39;23.63;;;15.40;;
24739;SDS011;45234;48.148;17.128;2023-03-01T07:12:06;24.35;;;15.20;;
24739;SDS011;45234;48.148;17.128;2023-03-01T07:14:33;26.52;;;15.35;;
24739;SDS011;45234;48.148;17.128;2023-03-01T07:17:00;22.23;;;13.40;;
24739;SDS011;45234;48.148;17.128;2023-03-01T07:19:27;24.52;;;15.00;;
24739;SDS011;45234;48.148;17.128;2023-03-01T07:21:56;25.42;;;15.57;;
24739;SDS011;45234;48.148;17.128;2023-03-01T07:24:23;24.55;;;15.02;;
24739;SDS011;45234;48.148;17.128;2023-03-01T07:26:50;24.55;;;14.40;;
24739;SDS011;45234;48.148;17.128;2023-03-01T07:29:19;22.75;;;14.38;;
24739;SDS011;45234;48.148;17.128;2023-03-01T07:31:46;23.23;;;14.98;;
24739;SDS011;45234;48.148;17.128;2023-03-01T07:34:12;31.05;;;16.40;;
24739;SDS011;45234;48.148;17.128;2023-03-01T07:36:39;25.63;;;15.50;;
24739;SDS011;45234;48.148;17.128;2023-03-01T07:39:09;23.60;;;15.07;;
24739;SDS011;45234;48.148;17.128;2023-03-01T07:41:36;23.83;;;14.40;;
24739;SDS011;45234;48.148;17.128;2023-03-01T07:44:03;26.15;;;15.52;;
24739;SDS011;45234;48.148;17.128;2023-03-01T07:46:30;24.15;;;15.27;;
24739;SDS011;45234;48.148;17.128;2023-03-01T07:48:57;28.60;;;15.38;;
24739;SDS011;45234;48.148;17.128;2023-03-01T07:51:24;25.77;;;15.57;;
24739;SDS011;45234;48.148;17.128;2023-03-01T07:53:51;23.60;;;15.27;;
24739;SDS011;45234;48.148;17.128;2023-03-01T07:56:18;31.20;;;15.38;;
24739;SDS011;45234;48.148;17.128;2023-03-01T07:58:47;25.23;;;15.68;;
24739;SDS011;45234;48.148;17.128;2023-03-01T08:01:17;25.30;;;15.32;;
24739;SDS011;45234;48.148;17.128;2023-03-01T08:03:45;23.45;;;15.88;;
24739;SDS011;45234;48.148;17.128;2023-03-01T08:06:13;25.92;;;15.55;;
24739;SDS011;45234;48.148;17.128;2023-03-01T08:08:42;25.38;;;14.50;;
24739;SDS011;45234;48.148;17.128;2023-03-01T08:11:10;29.38;;;15.88;;
24739;SDS011;45234;48.148;17.128;2023-03-01T08:13:38;25.25;;;15.70;;
24739;SDS011;45234;48.148;17.128;2023-03-01T08:16:07;27.23;;;16.17;;
24739;SDS011;45234;48.148;17.128;2023-03-01T08:18:38;23.40;;;15.88;;
24739;SDS011;45234;48.148;17.128;2023-03-01T08:21:25;22.95;;;14.68;;
24739;SDS011;45234;48.148;17.128;2023-03-01T08:23:52;25.17;;;15.93;;
24739;SDS011;45234;48.148;17.128;2023-03-01T08:26:20;22.25;;;15.52;;
24739;SDS011;45234;48.148;17.128;2023-03-01T08:28:47;23.48;;;14.98;;
24739;SDS011;45234;48.148;17.128;2023-03-01T08:33:45;24.98;;;15.52;;
24739;SDS011;45234;48.148;17.128;2023-03-01T08:36:16;25.35;;;16.73;;
24739;SDS011;45234;48.148;17.128;2023-03-01T08:38:46;26.73;;;16.35;;
24739;SDS011;45234;48.148;17.128;2023-03-01T08:41:13;24.77;;;15.95;;
24739;SDS011;45234;48.148;17.128;2023-03-01T08:43:41;22.02;;;14.93;;
24739;SDS011;45234;48.148;17.128;2023-03-01T08:46:08;22.27;;;14.93;;
24739;SDS011;45234;48.148;17.128;2023-03-01T08:48:35;24.85;;;16.40;;
24739;SDS011;45234;48.148;17.128;2023-03-01T08:51:16;29.13;;;15.88;;
24739;SDS011;45234;48.148;17.128;2023-03-01T08:53:45;20.30;;;14.88;;
24739;SDS011;45234;48.148;17.128;2023-03-01T08:56:12;22.40;;;16.17;;
24739;SDS011;45234;48.148;17.128;2023-03-01T08:58:40;23.70;;;15.68;;
24739;SDS011;45234;48.148;17.128;2023-03-01T09:01:10;25.52;;;15.85;;
24739;SDS011;45234;48.148;17.128;2023-03-01T09:03:38;24.35;;;16.15;;
24739;SDS011;45234;48.148;17.128;2023-03-01T09:06:05;23.58;;;15.63;;
24739;SDS011;45234;48.148;17.128;2023-03-01T09:08:43;21.23;;;15.18;;
24739;SDS011;45234;48.148;17.128;2023-03-01T09:11:13;21.40;;;14.20;;
24739;SDS011;45234;48.148;17.128;2023-03-01T09:13:42;21.65;;;15.13;;
24739;SDS011;45234;48.148;17.128;2023-03-01T09:16:10;22.80;;;15.18;;
24739;SDS011;45234;48.148;17.128;2023-03-01T09:18:39;23.35;;;15.52;;
24739;SDS011;45234;48.148;17.128;2023-03-01T09:21:07;23.98;;;14.48;;
24739;SDS011;45234;48.148;17.128;2023-03-01T09:23:36;19.42;;;13.82;;
24739;SDS011;45234;48.148;17.128;2023-03-01T09:26:08;21.35;;;13.30;;
24739;SDS011;45234;48.148;17.128;2023-03-01T09:28:37;16.60;;;12.75;;
24739;SDS011;45234;48.148;17.128;2023-03-01T09:31:06;18.58;;;12.73;;
24739;SDS011;45234;48.148;17.128;2023-03-01T09:33:35;20.17;;;13.77;;
24739;SDS011;45234;48.148;17.128;2023-03-01T09:36:03;19.92;;;13.10;;
24739;SDS011;45234;48.148;17.128;2023-03-01T09:38:32;21.77;;;12.80;;
24739;SDS011;45234;48.148;17.128;2023-03-01T09:41:00;19.65;;;13.73;;
24739;SDS011;45234;48.148;17.128;2023-03-01T09:43:46;20.73;;;13.57;;
24739;SDS011;45234;48.148;17.128;2023-03-01T09:48:50;24.88;;;13.90;;
24739;SDS011;45234;48.148;17.128;2023-03-01T09:51:29;21.05;;;13.18;;
24739;SDS011;45234;48.148;17.128;2023-03-01T09:53:58;21.33;;;13.63;;
24739;SDS011;45234;48.148;17.128;2023-03-01T09:56:38;21.33;;;14.23;;
24739;SDS011;45234;48.148;17.128;2023-03-01T09:59:22;21.25;;;13.07;;
24739;SDS011;45234;48.148;17.128;2023-03-01T10:04:46;18.48;;;12.52;;
24739;SDS011;45234;48.148;17.128;2023-03-01T10:10:06;18.60;;;13.05;;
24739;SDS011;45234;48.148;17.128;2023-03-01T10:12:35;20.15;;;13.02;;
24739;SDS011;45234;48.148;17.128;2023-03-01T10:15:07;18.65;;;12.95;;
24739;SDS011;45234;48.148;17.128;2023-03-01T10:17:58;16.90;;;11.75;;
24739;SDS011;45234;48.148;17.128;2023-03-01T10:20:56;16.40;;;10.15;;
24739;SDS011;45234;48.148;17.128;2023-03-01T10:23:43;19.98;;;11.40;;
24739;SDS011;45234;48.148;17.128;2023-03-01T10:26:32;19.73;;;11.93;;
24739;SDS011;45234;48.148;17.128;2023-03-01T10:29:11;17.08;;;11.35;;
24739;SDS011;45234;48.148;17.128;2023-03-01T10:31:40;17.77;;;11.95;;
24739;SDS011;45234;48.148;17.128;2023-03-01T10:34:31;18.77;;;11.93;;
24739;SDS011;45234;48.148;17.128;2023-03-01T10:39:54;18.10;;;11.77;;
24739;SDS011;45234;48.148;17.128;2023-03-01T10:42:31;16.50;;;10.88;;
24739;SDS011;45234;48.148;17.128;2023-03-01T10:50:30;14.50;;;10.32;;
24739;SDS011;45234;48.148;17.128;2023-03-01T10:53:02;19.80;;;9.88;;
24739;SDS011;45234;48.148;17.128;2023-03-01T10:58:06;12.80;;;8.85;;
24739;SDS011;45234;48.148;17.128;2023-03-01T11:00:52;13.60;;;10.27;;
24739;SDS011;45234;48.148;17.128;2023-03-01T11:03:34;15.25;;;10.15;;
24739;SDS011;45234;48.148;17.128;2023-03-01T11:08:50;17.83;;;10.57;;
24739;SDS011;45234;48.148;17.128;2023-03-01T11:14:07;17.67;;;11.00;;
24739;SDS011;45234;48.148;17.128;2023-03-01T11:17:02;16.52;;;11.27;;
24739;SDS011;45234;48.148;17.128;2023-03-01T11:19:38;16.05;;;11.27;;
24739;SDS011;45234;48.148;17.128;2023-03-01T11:22:18;15.88;;;10.73;;
24739;SDS011;45234;48.148;17.128;2023-03-01T11:24:49;17.92;;;10.82;;
24739;SDS011;45234;48.148;17.128;2023-03-01T11:27:35;17.67;;;11.30;;
24739;SDS011;45234;48.148;17.128;2023-03-01T11:30:07;15.70;;;11.65;;
24739;SDS011;45234;48.148;17.128;2023-03-01T11:35:42;19.75;;;12.65;;
24739;SDS011;45234;48.148;17.128;2023-03-01T11:38:29;20.70;;;11.98;;
24739;SDS011;45234;48.148;17.128;2023-03-01T11:41:02;18.50;;;12.45;;
24739;SDS011;45234;48.148;17.128;2023-03-01T11:55:08;24.70;;;13.15;;
24739;SDS011;45234;48.148;17.128;2023-03-01T12:40:26;21.42;;;11.52;;
24739;SDS011;45234;48.148;17.128;2023-03-01T12:43:10;15.93;;;11.60;;
24739;SDS011;45234;48.148;17.128;2023-03-01T12:51:28;18.73;;;12.60;;
24739;SDS011;45234;48.148;17.128;2023-03-01T12:53:58;16.17;;;11.13;;
24739;SDS011;45234;48.148;17.128;2023-03-01T12:56:47;21.65;;;12.13;;
24739;SDS011;45234;48.148;17.128;2023-03-01T12:59:20;20.13;;;12.68;;
24739;SDS011;45234;48.148;17.128;2023-03-01T13:05:20;16.67;;;11.00;;
24739;SDS011;45234;48.148;17.128;2023-03-01T13:10:56;14.75;;;10.55;;
24739;SDS011;45234;48.148;17.128;2023-03-01T13:13:27;17.50;;;10.18;;
24739;SDS011;45234;48.148;17.128;2023-03-01T13:15:56;18.20;;;11.70;;
24739;SDS011;45234;48.148;17.128;2023-03-01T13:20:56;19.10;;;10.23;;
24739;SDS011;45234;48.148;17.128;2023-03-01T13:23:27;19.70;;;11.50;;
24739;SDS011;45234;48.148;17.128;2023-03-01T13:26:01;16.63;;;10.57;;
24739;SDS011;45234;48.148;17.128;2023-03-01T13:28:46;14.38;;;10.40;;
24739;SDS011;45234;48.148;17.128;2023-03-01T13:33:56;15.50;;;11.63;;
24739;SDS011;45234;48.148;17.128;2023-03-01T13:49:56;14.10;;;9.77;;
24739;SDS011;45234;48.148;17.128;2023-03-01T13:52:42;16.20;;;10.65;;
24739;SDS011;45234;48.148;17.128;2023-03-01T13:57:44;13.00;;;9.40;;
24739;SDS011;45234;48.148;17.128;2023-03-01T14:03:04;18.63;;;10.38;;
24739;SDS011;45234;48.148;17.128;2023-03-01T14:05:50;17.38;;;9.90;;
24739;SDS011;45234;48.148;17.128;2023-03-01T14:08:40;14.98;;;10.07;;
24739;SDS011;45234;48.148;17.128;2023-03-01T14:19:26;11.95;;;8.50;;
24739;SDS011;45234;48.148;17.128;2023-03-01T14:21:59;14.48;;;9.38;;
24739;SDS011;45234;48.148;17.128;2023-03-01T14:24:53;13.75;;;9.45;;
24739;SDS011;45234;48.148;17.128;2023-03-01T14:27:23;18.17;;;10.48;;
24739;SDS011;45234;48.148;17.128;2023-03-01T14:29:57;15.02;;;9.75;;
24739;SDS011;45234;48.148;17.128;2023-03-01T14:32:28;13.27;;;9.18;;
24739;SDS011;45234;48.148;17.128;2023-03-01T14:34:57;17.38;;;10.30;;
24739;SDS011;45234;48.148;17.128;2023-03-01T14:37:27;16.20;;;10.05;;
24739;SDS011;45234;48.148;17.128;2023-03-01T14:39:56;13.57;;;8.57;;
24739;SDS011;45234;48.148;17.128;2023-03-01T14:42:26;12.32;;;7.15;;
24739;SDS011;45234;48.148;17.128;2023-03-01T14:45:01;12.43;;;7.13;;
24739;SDS011;45234;48.148;17.128;2023-03-01T14:47:30;11.77;;;6.90;;
24739;SDS011;45234;48.148;17.128;2023-03-01T14:50:05;11.30;;;7.38;;
24739;SDS011;45234;48.148;17.128;2023-03-01T14:52:44;14.80;;;7.47;;
24739;SDS011;45234;48.148;17.128;2023-03-01T14:55:20;9.70;;;5.88;;
24739;SDS011;45234;48.148;17.128;2023-03-01T14:57:51;13.15;;;6.45;;
24739;SDS011;45234;48.148;17.128;2023-03-01T15:00:30;12.93;;;6.75;;
24739;SDS011;45234;48.148;17.128;2023-03-01T15:03:11;10.57;;;5.68;;
24739;SDS011;45234;48.148;17.128;2023-03-01T15:05:49;13.77;;;5.60;;
24739;SDS011;45234;48.148;17.128;2023-03-01T15:08:18;9.77;;;5.68;;
24739;SDS011;45234;48.148;17.128;2023-03-01T15:11:05;10.57;;;6.47;;
24739;SDS011;45234;48.148;17.128;2023-03-01T15:13:52;14.93;;;6.32;;
24739;SDS011;45234;48.148;17.128;2023-03-01T15:16:24;10.35;;;5.97;;
24739;SDS011;45234;48.148;17.128;2023-03-01T15:18:56;11.75;;;6.18;;
24739;SDS011;45234;48.148;17.128;2023-03-01T15:21:32;12.35;;;6.20;;
24739;SDS011;45234;48.148;17.128;2023-03-01T15:26:57;11.82;;;5.72;;
24739;SDS011;45234;48.148;17.128;2023-03-01T15:29:33;8.48;;;4.60;;
24739;SDS011;45234;48.148;17.128;2023-03-01T15:32:20;7.07;;;4.80;;
24739;SDS011;45234;48.148;17.128;2023-03-01T15:35:00;10.23;;;5.70;;
24739;SDS011;45234;48.148;17.128;2023-03-01T15:37:47;10.73;;;5.65;;
24739;SDS011;45234;48.148;17.128;2023-03-01T15:42:58;14.20;;;6.28;;
24739;SDS011;45234;48.148;17.128;2023-03-01T15:45:27;11.48;;;5.70;;
24739;SDS011;45234;48.148;17.128;2023-03-01T15:47:56;8.80;;;5.13;;
24739;SDS011;45234;48.148;17.128;2023-03-01T15:50:28;10.80;;;5.65;;
24739;SDS011;45234;48.148;17.128;2023-03-01T15:53:04;11.57;;;5.93;;
24739;SDS011;45234;48.148;17.128;2023-03-01T15:55:33;12.75;;;6.43;;
24739;SDS011;45234;48.148;17.128;2023-03-01T15:58:05;12.25;;;6.30;;
24739;SDS011;45234;48.148;17.128;2023-03-01T16:00:38;10.65;;;6.00;;
24739;SDS011;45234;48.148;17.128;2023-03-01T16:03:23;9.75;;;5.45;;
24739;SDS011;45234;48.148;17.128;2023-03-01T16:05:50;11.98;;;6.43;;
24739;SDS011;45234;48.148;17.128;2023-03-01T16:08:18;10.68;;;6.03;;
24739;SDS011;45234;48.148;17.128;2023-03-01T16:10:44;13.80;;;6.47;;
24739;SDS011;45234;48.148;17.128;2023-03-01T16:13:14;12.27;;;6.10;;
24739;SDS011;45234;48.148;17.128;2023-03-01T16:15:43;13.07;;;6.18;;
24739;SDS011;45234;48.148;17.128;2023-03-01T16:18:10;9.98;;;6.20;;
24739;SDS011;45234;48.148;17.128;2023-03-01T16:20:37;10.82;;;6.32;;
24739;SDS011;45234;48.148;17.128;2023-03-01T16:23:05;9.63;;;6.18;;
24739;SDS011;45234;48.148;17.128;2023-03-01T16:25:34;13.65;;;6.97;;
24739;SDS011;45234;48.148;17.128;2023-03-01T16:28:01;12.40;;;6.60;;
24739;SDS011;45234;48.148;17.128;2023-03-01T16:30:34;12.40;;;6.18;;
24739;SDS011;45234;48.148;17.128;2023-03-01T16:33:02;12.60;;;6.35;;
24739;SDS011;45234;48.148;17.128;2023-03-01T16:35:49;14.45;;;7.20;;
24739;SDS011;45234;48.148;17.128;2023-03-01T16:38:16;12.65;;;6.28;;
24739;SDS011;45234;48.148;17.128;2023-03-01T16:40:46;11.50;;;6.65;;
24739;SDS011;45234;48.148;17.128;2023-03-01T16:43:14;14.68;;;7.28;;
24739;SDS011;45234;48.148;17.128;2023-03-01T16:45:41;15.55;;;7.30;;
24739;SDS011;45234;48.148;17.128;2023-03-01T16:48:10;14.15;;;7.55;;
24739;SDS011;45234;48.148;17.128;2023-03-01T16:50:38;12.98;;;7.20;;
24739;SDS011;45234;48.148;17.128;2023-03-01T16:53:05;10.77;;;6.63;;
24739;SDS011;45234;48.148;17.128;2023-03-01T16:55:32;12.65;;;7.38;;
24739;SDS011;45234;48.148;17.128;2023-03-01T16:57:59;13.40;;;7.22;;
24739;SDS011;45234;48.148;17.128;2023-03-01T17:00:26;14.02;;;7.55;;
24739;SDS011;45234;48.148;17.128;2023-03-01T17:02:53;13.13;;;8.25;;
24739;SDS011;45234;48.148;17.128;2023-03-01T17:05:20;16.40;;;7.43;;
24739;SDS011;45234;48.148;17.128;2023-03-01T17:07:49;17.30;;;8.45;;